createdAt,value
2022-11-29T00:01:32.649Z,83.70
2022-11-29T00:04:00.430Z,83.07
2022-11-29T00:06:31.028Z,83.46
2022-11-29T00:09:01.113Z,86.27
2022-11-29T00:11:49.229Z,88.68
2022-11-29T00:14:18.491Z,89.64
2022-11-29T00:16:50.173Z,88.23
2022-11-29T00:19:17.223Z,86.81
2022-11-29T00:21:44.227Z,88.15
2022-11-29T00:24:11.250Z,86.97
2022-11-29T00:26:38.376Z,84.11
2022-11-29T00:29:06.124Z,82.41
2022-11-29T00:31:33.695Z,81.94
2022-11-29T00:34:03.728Z,82.69
2022-11-29T00:36:30.985Z,83.48
2022-11-29T00:38:58.836Z,82.20
2022-11-29T00:41:26.277Z,88.10
2022-11-29T00:43:54.041Z,91.06
2022-11-29T00:46:21.328Z,91.69
2022-11-29T00:48:48.357Z,92.64
2022-11-29T00:51:15.386Z,94.27
2022-11-29T00:53:42.352Z,93.85
2022-11-29T00:56:09.445Z,93.34
2022-11-29T00:58:37.481Z,93.55
2022-11-29T01:01:04.857Z,93.56
2022-11-29T01:03:32.237Z,90.76
2022-11-29T01:06:08.326Z,91.25
2022-11-29T01:08:35.899Z,90.80
2022-11-29T01:11:16.036Z,90.40
2022-11-29T01:13:43.617Z,89.00
2022-11-29T01:16:11.753Z,89.72
2022-11-29T01:18:39.131Z,90.53
2022-11-29T01:21:12.585Z,89.49
2022-11-29T01:23:40.324Z,87.71
2022-11-29T01:26:20.838Z,86.67
2022-11-29T01:29:06.765Z,87.15
2022-11-29T01:31:37.908Z,87.03
2022-11-29T01:34:06.605Z,89.21
2022-11-29T01:36:33.808Z,92.09
2022-11-29T01:39:01.966Z,92.93
2022-11-29T01:41:32.202Z,94.16
2022-11-29T01:44:01.107Z,94.06
2022-11-29T01:46:30.717Z,92.88
2022-11-29T01:49:07.346Z,92.25
2022-11-29T01:51:36.016Z,90.62
2022-11-29T01:54:03.767Z,89.21
2022-11-29T01:56:33.668Z,88.76
2022-11-29T01:59:08.969Z,88.47
2022-11-29T02:01:37.214Z,89.33
2022-11-29T02:04:05.136Z,89.12
2022-11-29T02:06:33.330Z,90.58
2022-11-29T02:09:00.401Z,88.68
2022-11-29T02:11:50.259Z,89.27
2022-11-29T02:14:26.249Z,87.86
2022-11-29T02:16:58.965Z,85.87
2022-11-29T02:19:35.227Z,86.48
2022-11-29T02:22:31.538Z,85.42
2022-11-29T02:25:17.102Z,85.08
2022-11-29T02:27:44.013Z,85.51
2022-11-29T02:30:18.409Z,84.14
2022-11-29T02:33:06.555Z,83.89
2022-11-29T02:36:01.163Z,82.71
2022-11-29T02:38:56.147Z,85.14
2022-11-29T02:41:25.887Z,86.53
2022-11-29T02:44:04.870Z,85.18
2022-11-29T02:46:51.900Z,83.61
2022-11-29T02:49:48.158Z,85.25
2022-11-29T02:52:27.487Z,83.84
2022-11-29T02:55:21.421Z,82.81
2022-11-29T02:58:08.990Z,84.45
2022-11-29T03:00:41.326Z,85.26
2022-11-29T03:03:42.335Z,84.46
2022-11-29T03:06:17.787Z,83.40
2022-11-29T03:08:56.487Z,81.11
2022-11-29T03:11:44.559Z,78.83
2022-11-29T03:14:24.563Z,78.32
2022-11-29T03:17:07.469Z,77.74
2022-11-29T03:19:49.821Z,77.20
2022-11-29T03:22:41.821Z,77.50
2022-11-29T03:25:42.889Z,76.60
2022-11-29T03:28:20.867Z,77.00
2022-11-29T03:31:10.047Z,76.71
2022-11-29T03:33:50.992Z,75.03
2022-11-29T03:36:24.655Z,74.72
2022-11-29T03:38:55.306Z,74.51
2022-11-29T03:41:35.539Z,74.20
2022-11-29T03:44:40.790Z,74.76
2022-11-29T03:47:19.632Z,75.83
2022-11-29T03:49:59.128Z,75.81
2022-11-29T03:52:53.588Z,74.61
2022-11-29T03:55:46.471Z,73.52
2022-11-29T03:59:03.815Z,74.87
2022-11-29T04:01:49.259Z,74.10
2022-11-29T04:04:48.619Z,74.02
2022-11-29T04:07:36.959Z,72.53
2022-11-29T04:10:41.610Z,72.99
2022-11-29T04:13:27.551Z,72.53
2022-11-29T04:16:33.091Z,72.66
2022-11-29T04:19:12.410Z,72.75
2022-11-29T04:22:01.165Z,74.88
2022-11-29T04:24:52.788Z,76.71
2022-11-29T04:27:41.707Z,80.47
2022-11-29T04:30:25.565Z,78.13
2022-11-29T04:33:16.961Z,76.74
2022-11-29T04:36:01.958Z,77.54
2022-11-29T04:39:05.842Z,78.13
2022-11-29T04:41:54.464Z,78.43
2022-11-29T04:44:27.351Z,77.38
2022-11-29T04:47:02.123Z,75.60
2022-11-29T04:49:56.760Z,74.77
2022-11-29T04:52:46.789Z,73.28
2022-11-29T04:55:50.030Z,75.31
2022-11-29T04:58:25.589Z,75.66
2022-11-29T05:01:09.127Z,77.14
2022-11-29T05:03:41.659Z,77.93
2022-11-29T05:06:32.797Z,77.14
2022-11-29T05:09:18.463Z,75.25
2022-11-29T05:12:03.441Z,74.79
2022-11-29T05:14:47.774Z,73.91
2022-11-29T05:17:46.973Z,73.59
2022-11-29T05:20:28.602Z,72.11
2022-11-29T05:23:18.130Z,72.66
2022-11-29T05:26:09.431Z,73.45
2022-11-29T05:28:58.758Z,73.03
2022-11-29T05:31:42.544Z,71.64
2022-11-29T05:34:35.300Z,70.90
2022-11-29T05:37:41.095Z,69.94
2022-11-29T05:40:11.117Z,70.11
2022-11-29T05:43:05.266Z,70.35
2022-11-29T05:45:50.887Z,71.25
2022-11-29T05:48:36.419Z,70.88
2022-11-29T05:51:03.355Z,71.14
2022-11-29T05:53:41.291Z,70.28
2022-11-29T05:56:18.392Z,69.79
2022-11-29T05:58:54.499Z,71.05
2022-11-29T06:01:29.706Z,70.83
2022-11-29T06:04:33.270Z,70.67
2022-11-29T06:07:40.370Z,69.78
2022-11-29T06:10:15.132Z,69.38
2022-11-29T06:12:48.192Z,68.52
2022-11-29T06:15:20.960Z,71.74
2022-11-29T06:18:15.234Z,72.75
2022-11-29T06:21:14.805Z,71.41
2022-11-29T06:24:29.970Z,70.23
2022-11-29T06:27:15.603Z,69.88
2022-11-29T06:29:55.224Z,70.52
2022-11-29T06:32:36.937Z,71.24
2022-11-29T06:35:27.436Z,69.83
2022-11-29T06:37:58.467Z,69.44
2022-11-29T06:40:25.962Z,69.09
2022-11-29T06:42:52.935Z,68.84
2022-11-29T06:45:21.858Z,68.43
2022-11-29T06:47:58.250Z,69.22
2022-11-29T06:50:55.916Z,71.69
2022-11-29T06:53:37.454Z,70.70
2022-11-29T06:56:21.380Z,71.07
2022-11-29T06:58:58.213Z,72.03
2022-11-29T07:01:52.712Z,72.23
2022-11-29T07:04:28.550Z,71.31
2022-11-29T07:06:55.877Z,70.36
2022-11-29T07:09:26.995Z,74.68
2022-11-29T07:11:54.467Z,74.62
2022-11-29T07:14:21.919Z,72.40
2022-11-29T07:17:16.253Z,72.65
2022-11-29T07:19:52.422Z,75.96
2022-11-29T07:22:57.106Z,75.37
2022-11-29T07:25:36.506Z,76.05
2022-11-29T07:28:22.306Z,75.83
2022-11-29T07:31:14.346Z,74.24
2022-11-29T07:34:10.095Z,76.12
2022-11-29T07:36:46.041Z,75.07
2022-11-29T07:39:34.343Z,75.88
2022-11-29T07:42:31.539Z,75.89
2022-11-29T07:45:28.661Z,75.39
2022-11-29T07:47:55.918Z,78.14
2022-11-29T07:50:23.410Z,78.61
2022-11-29T07:52:50.530Z,79.76
2022-11-29T07:55:20.123Z,82.10
2022-11-29T07:57:50.582Z,79.75
2022-11-29T08:00:19.419Z,77.78
2022-11-29T08:02:48.962Z,79.50
2022-11-29T08:05:16.537Z,77.99
2022-11-29T08:07:44.057Z,77.14
2022-11-29T08:10:14.272Z,75.01
2022-11-29T08:12:46.463Z,73.24
2022-11-29T08:15:14.116Z,73.03
2022-11-29T08:17:41.216Z,73.42
2022-11-29T08:20:09.933Z,74.66
2022-11-29T08:22:37.060Z,74.96
2022-11-29T08:25:05.898Z,73.68
2022-11-29T08:27:33.744Z,74.46
2022-11-29T08:30:00.721Z,74.02
2022-11-29T08:32:28.446Z,71.21
2022-11-29T08:34:55.445Z,72.48
2022-11-29T08:37:22.399Z,73.76
2022-11-29T08:39:49.352Z,72.62
2022-11-29T08:42:16.300Z,69.54
2022-11-29T08:44:43.508Z,73.50
2022-11-29T08:47:29.750Z,75.89
2022-11-29T08:50:02.743Z,75.19
2022-11-29T08:52:53.202Z,74.42
2022-11-29T08:55:22.165Z,70.66
2022-11-29T08:57:50.952Z,68.86
2022-11-29T09:00:19.318Z,67.34
2022-11-29T09:02:46.308Z,67.96
2022-11-29T09:05:15.089Z,70.63
2022-11-29T09:07:42.229Z,70.25
2022-11-29T09:10:11.355Z,71.74
2022-11-29T09:12:39.833Z,73.35
2022-11-29T09:15:10.085Z,73.64
2022-11-29T09:17:37.067Z,73.71
2022-11-29T09:20:05.222Z,73.45
2022-11-29T09:22:32.329Z,70.59
2022-11-29T09:24:59.287Z,69.22
2022-11-29T09:27:26.382Z,70.41
2022-11-29T09:29:53.424Z,69.66
2022-11-29T09:32:20.377Z,71.63
2022-11-29T09:34:47.705Z,73.52
2022-11-29T09:37:14.902Z,72.03
2022-11-29T09:39:42.015Z,70.81
2022-11-29T09:42:24.131Z,68.21
2022-11-29T09:45:03.461Z,68.86
2022-11-29T09:47:50.188Z,67.81
2022-11-29T09:50:26.008Z,66.28
2022-11-29T09:53:01.135Z,64.84
2022-11-29T09:55:43.314Z,65.08
2022-11-29T09:58:16.579Z,67.99
2022-11-29T10:00:50.741Z,69.33
2022-11-29T10:03:29.641Z,68.76
2022-11-29T10:06:02.407Z,67.28
2022-11-29T10:08:46.761Z,65.58
2022-11-29T10:11:23.699Z,67.88
2022-11-29T10:13:59.776Z,66.86
2022-11-29T10:16:44.905Z,69.96
2022-11-29T10:19:21.725Z,71.83
2022-11-29T10:21:59.111Z,72.01
2022-11-29T10:24:29.329Z,69.76
2022-11-29T10:26:56.529Z,70.86
2022-11-29T10:29:23.750Z,72.28
2022-11-29T10:31:52.893Z,72.06
2022-11-29T10:34:25.460Z,69.68
2022-11-29T10:37:02.780Z,68.29
2022-11-29T10:39:39.710Z,67.59
2022-11-29T10:42:35.679Z,66.43
2022-11-29T10:45:04.335Z,65.78
2022-11-29T10:47:32.374Z,65.83
2022-11-29T10:49:59.681Z,64.86
2022-11-29T10:52:26.674Z,66.19
2022-11-29T10:54:59.558Z,66.42
2022-11-29T10:57:26.712Z,65.81
2022-11-29T11:00:08.194Z,65.91
2022-11-29T11:02:36.145Z,64.62
2022-11-29T11:05:13.300Z,64.31
2022-11-29T11:07:40.877Z,65.57
2022-11-29T11:10:27.321Z,65.10
2022-11-29T11:13:08.113Z,64.58
2022-11-29T11:15:35.273Z,65.11
2022-11-29T11:18:05.410Z,64.30
2022-11-29T11:20:36.548Z,63.98
2022-11-29T11:23:06.897Z,65.20
2022-11-29T11:25:37.639Z,65.72
2022-11-29T11:28:20.515Z,66.70
2022-11-29T11:30:54.706Z,66.64
2022-11-29T11:33:34.227Z,68.86
2022-11-29T11:36:20.949Z,69.57
2022-11-29T11:38:53.076Z,69.66
2022-11-29T11:41:51.521Z,70.08
2022-11-29T11:44:49.378Z,69.70
2022-11-29T11:47:28.552Z,70.66
2022-11-29T11:50:05.377Z,71.47
2022-11-29T11:52:44.983Z,73.16
2022-11-29T11:55:40.220Z,73.31
2022-11-29T11:58:13.371Z,73.27
2022-11-29T12:01:06.108Z,74.55
2022-11-29T12:04:13.683Z,76.14
2022-11-29T12:06:54.108Z,75.97
2022-11-29T12:09:42.269Z,75.36
2022-11-29T12:12:18.543Z,76.79
2022-11-29T12:14:54.617Z,76.65
2022-11-29T12:17:27.618Z,76.41
2022-11-29T12:20:12.933Z,76.34
2022-11-29T12:22:55.346Z,76.12
2022-11-29T12:25:34.544Z,76.51
2022-11-29T12:28:01.822Z,75.62
2022-11-29T12:30:29.152Z,76.04
2022-11-29T12:33:14.774Z,76.49
2022-11-29T12:36:18.495Z,77.31
2022-11-29T12:39:09.837Z,78.40
2022-11-29T12:41:54.479Z,76.81
2022-11-29T12:44:52.381Z,77.37
2022-11-29T12:47:37.847Z,79.22
2022-11-29T12:50:16.958Z,79.82
2022-11-29T12:53:01.863Z,80.08
2022-11-29T12:55:49.215Z,81.06
2022-11-29T12:58:42.740Z,79.16
2022-11-29T13:01:38.404Z,80.56
2022-11-29T13:04:32.122Z,80.99
2022-11-29T13:07:23.129Z,81.43
2022-11-29T13:10:11.465Z,80.89
2022-11-29T13:12:50.064Z,80.73
2022-11-29T13:15:21.601Z,81.39
2022-11-29T13:18:00.927Z,81.96
2022-11-29T13:20:38.487Z,81.42
2022-11-29T13:23:39.269Z,80.61
2022-11-29T13:26:13.502Z,80.03
2022-11-29T13:28:42.958Z,79.50
2022-11-29T13:31:16.044Z,79.21
2022-11-29T13:34:06.488Z,79.01
2022-11-29T13:36:42.632Z,78.41
2022-11-29T13:39:49.748Z,75.77
2022-11-29T13:42:33.476Z,76.35
2022-11-29T13:45:28.192Z,74.99
2022-11-29T13:48:01.243Z,74.48
2022-11-29T13:50:39.960Z,77.09
2022-11-29T13:53:16.777Z,76.93
2022-11-29T13:56:00.292Z,78.12
2022-11-29T13:58:38.852Z,79.23
2022-11-29T14:01:08.925Z,77.99
2022-11-29T14:03:43.111Z,76.64
2022-11-29T14:06:32.344Z,75.79
2022-11-29T14:09:26.699Z,77.10
2022-11-29T14:12:22.085Z,75.95
2022-11-29T14:14:54.127Z,77.39
2022-11-29T14:18:09.478Z,76.46
2022-11-29T14:20:39.525Z,76.55
2022-11-29T14:23:09.021Z,76.24
2022-11-29T14:25:52.653Z,75.42
2022-11-29T14:28:22.568Z,73.78
2022-11-29T14:30:53.294Z,73.57
2022-11-29T14:33:29.317Z,72.81
2022-11-29T14:36:18.997Z,71.85
2022-11-29T14:39:04.986Z,72.13
2022-11-29T14:41:56.121Z,71.52
2022-11-29T14:44:33.783Z,71.71
2022-11-29T14:47:17.216Z,73.04
2022-11-29T14:49:45.737Z,71.63
2022-11-29T14:52:15.684Z,72.05
2022-11-29T14:55:00.865Z,72.25
2022-11-29T14:57:58.566Z,72.86
2022-11-29T15:00:34.944Z,73.42
2022-11-29T15:03:28.409Z,72.13
2022-11-29T15:06:32.435Z,72.73
2022-11-29T15:09:14.063Z,72.64
2022-11-29T15:11:57.658Z,73.45
2022-11-29T15:14:52.068Z,73.92
2022-11-29T15:17:44.395Z,73.42
2022-11-29T15:20:30.973Z,75.14
2022-11-29T15:23:01.630Z,74.50
2022-11-29T15:25:31.940Z,75.44
2022-11-29T15:28:03.902Z,77.78
2022-11-29T15:30:35.089Z,79.41
2022-11-29T15:33:08.002Z,78.32
2022-11-29T15:35:36.422Z,77.15
2022-11-29T15:38:03.948Z,75.78
2022-11-29T15:40:35.604Z,73.94
2022-11-29T15:43:15.457Z,73.52
2022-11-29T15:45:55.570Z,72.50
2022-11-29T15:48:27.728Z,73.37
2022-11-29T15:51:01.048Z,73.26
2022-11-29T15:54:12.608Z,74.85
2022-11-29T15:56:49.247Z,75.50
2022-11-29T15:59:33.793Z,77.63
2022-11-29T16:02:07.864Z,76.94
2022-11-29T16:04:47.559Z,74.92
2022-11-29T16:07:16.404Z,73.81
2022-11-29T16:09:49.227Z,74.16
2022-11-29T16:12:18.137Z,74.48
2022-11-29T16:14:56.687Z,74.88
2022-11-29T16:17:42.013Z,74.90
2022-11-29T16:20:23.696Z,75.39
2022-11-29T16:23:11.402Z,75.73
2022-11-29T16:26:15.500Z,75.75
2022-11-29T16:28:53.430Z,73.25
2022-11-29T16:31:23.642Z,74.61
2022-11-29T16:33:52.552Z,73.83
2022-11-29T16:36:27.704Z,73.11
2022-11-29T16:39:01.948Z,74.29
2022-11-29T16:41:35.102Z,73.82
2022-11-29T16:44:03.736Z,73.26
2022-11-29T16:46:37.357Z,73.51
2022-11-29T16:49:32.822Z,72.97
2022-11-29T16:52:00.426Z,72.36
2022-11-29T16:54:33.877Z,72.20
2022-11-29T16:57:07.616Z,71.46
2022-11-29T16:59:35.428Z,70.86
2022-11-29T17:02:03.100Z,71.41
2022-11-29T17:04:30.189Z,71.08
2022-11-29T17:06:57.941Z,70.73
2022-11-29T17:09:28.606Z,70.87
2022-11-29T17:11:56.615Z,70.44
2022-11-29T17:14:23.816Z,70.38
2022-11-29T17:16:52.143Z,69.96
2022-11-29T17:19:22.997Z,70.85
2022-11-29T17:21:51.061Z,70.18
2022-11-29T17:24:20.225Z,69.54
2022-11-29T17:26:47.604Z,70.66
2022-11-29T17:29:16.164Z,71.03
2022-11-29T17:31:45.239Z,72.41
2022-11-29T17:34:12.709Z,72.84
2022-11-29T17:36:40.561Z,73.18
2022-11-29T17:39:08.139Z,72.42
2022-11-29T17:41:35.613Z,72.00
2022-11-29T17:44:03.594Z,71.26
2022-11-29T17:46:37.486Z,71.48
2022-11-29T17:49:07.984Z,70.12
2022-11-29T17:51:54.260Z,70.85
2022-11-29T17:54:22.558Z,71.25
2022-11-29T17:56:50.341Z,71.13
2022-11-29T17:59:17.661Z,72.14
2022-11-29T18:01:47.573Z,72.64
2022-11-29T18:04:14.829Z,72.60
2022-11-29T18:06:42.484Z,72.67
2022-11-29T18:09:10.915Z,71.72
2022-11-29T18:11:47.594Z,71.20
2022-11-29T18:14:20.853Z,71.26
2022-11-29T18:16:48.368Z,70.63
2022-11-29T18:19:18.396Z,70.58
2022-11-29T18:21:46.409Z,70.72
2022-11-29T18:24:15.271Z,71.12
2022-11-29T18:26:43.275Z,71.12
2022-11-29T18:29:11.052Z,72.55
2022-11-29T18:31:41.196Z,72.88
2022-11-29T18:34:10.317Z,72.85
2022-11-29T18:36:43.163Z,71.90
2022-11-29T18:39:17.567Z,71.00
2022-11-29T18:41:47.642Z,71.09
2022-11-29T18:44:16.381Z,71.04
2022-11-29T18:46:45.532Z,72.98
2022-11-29T18:49:15.108Z,71.73
2022-11-29T18:51:45.393Z,71.62
2022-11-29T18:54:14.159Z,71.25
2022-11-29T18:56:41.462Z,70.99
2022-11-29T18:59:12.927Z,71.92
2022-11-29T19:01:42.604Z,73.00
2022-11-29T19:04:13.556Z,74.04
2022-11-29T19:06:41.326Z,74.09
2022-11-29T19:09:13.052Z,72.96
2022-11-29T19:11:40.817Z,72.52
2022-11-29T19:14:11.686Z,71.85
2022-11-29T19:16:47.057Z,72.95
2022-11-29T19:19:14.383Z,73.58
2022-11-29T19:21:42.039Z,73.18
2022-11-29T19:24:15.824Z,73.94
2022-11-29T19:26:45.244Z,73.82
2022-11-29T19:29:14.206Z,74.21
2022-11-29T19:31:42.718Z,74.43
2022-11-29T19:34:11.601Z,74.54
2022-11-29T19:36:44.251Z,74.04
2022-11-29T19:39:13.996Z,74.11
2022-11-29T19:41:43.253Z,72.58
2022-11-29T19:44:11.655Z,71.90
2022-11-29T19:46:41.569Z,72.15
2022-11-29T19:49:10.876Z,71.84
2022-11-29T19:51:38.128Z,72.51
2022-11-29T19:54:08.774Z,73.50
2022-11-29T19:56:35.963Z,72.48
2022-11-29T19:59:03.515Z,72.34
2022-11-29T20:01:40.866Z,71.66
2022-11-29T20:04:09.282Z,71.30
2022-11-29T20:06:37.056Z,72.58
2022-11-29T20:09:04.860Z,72.65
2022-11-29T20:11:33.399Z,72.29
2022-11-29T20:14:02.287Z,71.77
2022-11-29T20:16:31.017Z,72.30
2022-11-29T20:18:58.691Z,71.85
2022-11-29T20:21:31.629Z,71.56
2022-11-29T20:24:19.614Z,71.72
2022-11-29T20:26:47.938Z,71.14
2022-11-29T20:29:15.951Z,72.47
2022-11-29T20:31:49.669Z,73.08
2022-11-29T20:34:19.387Z,73.55
2022-11-29T20:36:52.295Z,72.22
2022-11-29T20:39:45.314Z,72.43
2022-11-29T20:42:34.237Z,72.99
2022-11-29T20:45:04.855Z,74.11
2022-11-29T20:47:42.590Z,74.33
2022-11-29T20:50:20.484Z,73.81
2022-11-29T20:52:55.910Z,73.84
2022-11-29T20:55:23.555Z,74.45
2022-11-29T20:57:50.574Z,74.17
2022-11-29T21:00:18.399Z,73.55
2022-11-29T21:02:45.492Z,74.31
2022-11-29T21:05:12.487Z,74.11
2022-11-29T21:07:39.570Z,72.81
2022-11-29T21:10:27.541Z,73.81
2022-11-29T21:12:56.170Z,73.34
2022-11-29T21:15:23.525Z,74.15
2022-11-29T21:17:51.420Z,73.83
2022-11-29T21:20:22.312Z,73.73
2022-11-29T21:22:49.277Z,72.35
2022-11-29T21:25:28.127Z,73.62
2022-11-29T21:27:55.486Z,73.42
2022-11-29T21:30:24.868Z,74.10
2022-11-29T21:32:55.070Z,73.86
2022-11-29T21:35:22.118Z,74.37
2022-11-29T21:37:55.234Z,73.97
2022-11-29T21:40:22.347Z,75.12
2022-11-29T21:42:49.280Z,75.07
2022-11-29T21:45:16.501Z,75.27
2022-11-29T21:47:44.666Z,75.60
2022-11-29T21:50:13.476Z,76.28
2022-11-29T21:52:40.593Z,76.65
2022-11-29T21:55:07.987Z,77.92
2022-11-29T21:57:37.039Z,77.58
2022-11-29T22:00:05.426Z,75.67
2022-11-29T22:02:32.565Z,75.18
2022-11-29T22:04:59.582Z,74.62
2022-11-29T22:07:27.349Z,75.16
2022-11-29T22:09:55.643Z,75.39
2022-11-29T22:12:37.757Z,74.82
2022-11-29T22:15:05.329Z,75.41
2022-11-29T22:17:32.313Z,75.64
2022-11-29T22:19:59.322Z,75.62
2022-11-29T22:22:28.258Z,76.03
2022-11-29T22:24:55.407Z,77.12
2022-11-29T22:27:22.373Z,74.91
2022-11-29T22:29:49.396Z,74.28
2022-11-29T22:32:16.446Z,74.77
2022-11-29T22:34:43.521Z,74.28
2022-11-29T22:37:10.614Z,74.84
2022-11-29T22:39:37.580Z,74.54
2022-11-29T22:42:04.616Z,75.62
2022-11-29T22:44:31.694Z,75.00
2022-11-29T22:46:58.688Z,76.11
2022-11-29T22:49:25.734Z,74.40
2022-11-29T22:51:53.429Z,75.54
2022-11-29T22:54:20.488Z,75.79
2022-11-29T22:56:47.785Z,75.00
2022-11-29T22:59:14.816Z,74.72
2022-11-29T23:01:42.899Z,73.92
2022-11-29T23:04:11.842Z,73.78
2022-11-29T23:06:42.349Z,73.91
2022-11-29T23:09:21.234Z,75.00
2022-11-29T23:11:53.711Z,75.26
2022-11-29T23:14:22.419Z,74.62
2022-11-29T23:16:49.700Z,74.88
2022-11-29T23:19:17.443Z,75.28
2022-11-29T23:21:45.903Z,75.92
2022-11-29T23:24:14.780Z,77.08
2022-11-29T23:26:45.119Z,76.56
2022-11-29T23:29:17.925Z,76.39
2022-11-29T23:31:46.655Z,76.41
2022-11-29T23:34:14.367Z,78.21
2022-11-29T23:36:41.581Z,78.17
2022-11-29T23:39:08.834Z,78.27
2022-11-29T23:41:36.789Z,78.65
2022-11-29T23:44:05.470Z,78.00
2022-11-29T23:46:33.010Z,77.68
2022-11-29T23:48:59.979Z,76.97
2022-11-29T23:51:27.013Z,77.46
2022-11-29T23:53:54.926Z,76.04
2022-11-29T23:56:22.456Z,76.59
2022-11-29T23:58:49.639Z,76.85
